ETH707 EDDF-HAAB
Flight info
| Callsign | ETH707 |
|---|---|
| Flight time | N/A |
| Altitude | 37000 |
| Route | CINDY8S CINDY Z74 LAMPU DCT NOMBO Y161 MAH DCT VAVOR DCT RADIZ DCT VILAK DCT DOL DCT NIVES DCT VRANA DCT DIMIS DCT SALUN N705 BOPIX N710 TAKRI P751 UMINI/N0487F390 P751 TOMRU DCT KSL/N0488F380 DCT ALRAP/N0486F390 T124 AMUDO AMUDO1A |
| Aircraft | A359/H-SDE2E3GHIJ3J4J5LM1ORWXY/LB1D1 |
Departure
| Time | 2026-05-04 00:35 |
|---|---|
| Airport | Frankfurt Main Airport (EDDF) |
Arrival
| Time | N/A |
|---|---|
| Airport | Addis Ababa Bole International Airport (HAAB) |
| Time | Latitude | Longitude | Altitude | Speed | Heading |
|---|---|---|---|---|---|
| 2026-05-04 00:03 | 50.04595 | 8.57052 | 363 ft | 0 kts | 59° |
| 2026-05-04 00:23 | 50.04585 | 8.57026 | 370 ft | 4 kts | 60° |
| 2026-05-04 00:23 | 50.04572 | 8.56989 | 365 ft | 4 kts | 62° |
| 2026-05-04 00:24 | 50.04559 | 8.56952 | 366 ft | 4 kts | 60° |
| 2026-05-04 00:24 | 50.04545 | 8.56917 | 369 ft | 4 kts | 52° |
| 2026-05-04 00:24 | 50.04528 | 8.56888 | 370 ft | 4 kts | 32° |
| 2026-05-04 00:24 | 50.04512 | 8.56876 | 367 ft | 2 kts | 9° |
| 2026-05-04 00:25 | 50.04487 | 8.56868 | 365 ft | 4 kts | 21° |
| 2026-05-04 00:25 | 50.04465 | 8.56850 | 368 ft | 4 kts | 44° |
| 2026-05-04 00:25 | 50.04451 | 8.56823 | 369 ft | 2 kts | 70° |
| 2026-05-04 00:25 | 50.04442 | 8.56786 | 370 ft | 4 kts | 70° |
| 2026-05-04 00:26 | 50.04433 | 8.56747 | 368 ft | 4 kts | 70° |
| 2026-05-04 00:26 | 50.04427 | 8.56725 | 367 ft | 5 kts | 70° |
| 2026-05-04 00:29 | 50.04439 | 8.56793 | 368 ft | 0 kts | 94° |
| 2026-05-04 00:29 | 50.04391 | 8.56840 | 368 ft | 16 kts | 174° |
| 2026-05-04 00:29 | 50.04298 | 8.56850 | 371 ft | 14 kts | 142° |
| 2026-05-04 00:29 | 50.04278 | 8.56899 | 369 ft | 2 kts | 100° |
| 2026-05-04 00:30 | 50.04300 | 8.56984 | 369 ft | 18 kts | 73° |
| 2026-05-04 00:30 | 50.04335 | 8.57164 | 368 ft | 17 kts | 71° |
| 2026-05-04 00:30 | 50.04376 | 8.57337 | 370 ft | 17 kts | 70° |
| 2026-05-04 00:30 | 50.04418 | 8.57514 | 369 ft | 18 kts | 70° |
| 2026-05-04 00:31 | 50.04463 | 8.57679 | 373 ft | 16 kts | 71° |
| 2026-05-04 00:31 | 50.04499 | 8.57845 | 374 ft | 16 kts | 71° |
| 2026-05-04 00:31 | 50.04537 | 8.58014 | 373 ft | 17 kts | 71° |
| 2026-05-04 00:31 | 50.04577 | 8.58192 | 374 ft | 17 kts | 68° |
| 2026-05-04 00:32 | 50.04617 | 8.58346 | 377 ft | 15 kts | 68° |
| 2026-05-04 00:32 | 50.04642 | 8.58498 | 375 ft | 14 kts | 95° |
| 2026-05-04 00:32 | 50.04583 | 8.58584 | 375 ft | 11 kts | 163° |
| 2026-05-04 00:32 | 50.04516 | 8.58579 | 376 ft | 8 kts | 204° |
| 2026-05-04 00:33 | 50.04478 | 8.58520 | 376 ft | 8 kts | 232° |
| 2026-05-04 00:33 | 50.04455 | 8.58453 | 376 ft | 0 kts | 246° |
| 2026-05-04 00:33 | 50.04453 | 8.58446 | 376 ft | 1 kts | 246° |
| 2026-05-04 00:34 | 50.04422 | 8.58329 | 375 ft | 37 kts | 248° |
| 2026-05-04 00:34 | 50.04265 | 8.57661 | 372 ft | 93 kts | 248° |
| 2026-05-04 00:34 | 50.03984 | 8.56478 | 361 ft | 141 kts | 250° |
| 2026-05-04 00:34 | 50.03594 | 8.54840 | 366 ft | 182 kts | 250° |
| 2026-05-04 00:35 | 50.03200 | 8.53013 | 1030 ft | 170 kts | 251° |
| 2026-05-04 00:35 | 50.02666 | 8.51399 | 1596 ft | 171 kts | 236° |
| 2026-05-04 00:35 | 50.01806 | 8.50106 | 1809 ft | 191 kts | 217° |
| 2026-05-04 00:35 | 50.00521 | 8.49249 | 2243 ft | 199 kts | 200° |
| 2026-05-04 00:36 | 49.99128 | 8.49025 | 2686 ft | 209 kts | 181° |
| 2026-05-04 00:36 | 49.97738 | 8.49867 | 3052 ft | 225 kts | 149° |
| 2026-05-04 00:36 | 49.96739 | 8.51783 | 3532 ft | 231 kts | 124° |
| 2026-05-04 00:36 | 49.95983 | 8.53999 | 4023 ft | 236 kts | 120° |
| 2026-05-04 00:37 | 49.95212 | 8.56339 | 4194 ft | 258 kts | 120° |
| 2026-05-04 00:37 | 49.94805 | 8.57543 | 4302 ft | 266 kts | 121° |
| 2026-05-04 00:37 | 49.94082 | 8.59802 | 4709 ft | 273 kts | 116° |
| 2026-05-04 00:37 | 49.93664 | 8.62712 | 5226 ft | 279 kts | 94° |
| 2026-05-04 00:38 | 49.93672 | 8.65748 | 5851 ft | 282 kts | 90° |
| 2026-05-04 00:38 | 49.93435 | 8.68795 | 6262 ft | 289 kts | 110° |
| 2026-05-04 00:38 | 49.92361 | 8.71356 | 6829 ft | 282 kts | 140° |
| 2026-05-04 00:38 | 49.90793 | 8.73123 | 7579 ft | 276 kts | 151° |
| 2026-05-04 00:39 | 49.89181 | 8.74787 | 8229 ft | 281 kts | 149° |
| 2026-05-04 00:39 | 49.87813 | 8.77020 | 8808 ft | 293 kts | 128° |
| 2026-05-04 00:39 | 49.87132 | 8.78826 | 9296 ft | 294 kts | 122° |
| 2026-05-04 00:40 | 49.81617 | 8.94273 | 11435 ft | 354 kts | 123° |
| 2026-05-04 00:41 | 49.80397 | 8.97632 | 11947 ft | 361 kts | 122° |
| 2026-05-04 00:41 | 49.79153 | 9.01056 | 12528 ft | 366 kts | 122° |
| 2026-05-04 00:41 | 49.77897 | 9.04506 | 13112 ft | 370 kts | 122° |
| 2026-05-04 00:41 | 49.76649 | 9.07981 | 13730 ft | 374 kts | 121° |
| 2026-05-04 00:42 | 49.75696 | 9.11765 | 14208 ft | 381 kts | 108° |
| 2026-05-04 00:42 | 49.75065 | 9.15762 | 14746 ft | 384 kts | 106° |
| 2026-05-04 00:42 | 49.74119 | 9.19622 | 15134 ft | 385 kts | 122° |
| 2026-05-04 00:42 | 49.72620 | 9.23013 | 15695 ft | 384 kts | 130° |
| 2026-05-04 00:43 | 49.70896 | 9.26188 | 16216 ft | 386 kts | 134° |
| 2026-05-04 00:43 | 49.69101 | 9.29211 | 16743 ft | 389 kts | 136° |
| 2026-05-04 00:43 | 49.67217 | 9.32304 | 17260 ft | 392 kts | 136° |
| 2026-05-04 00:43 | 49.65354 | 9.35390 | 17770 ft | 396 kts | 136° |
| 2026-05-04 00:44 | 49.63485 | 9.38541 | 18281 ft | 399 kts | 135° |
| 2026-05-04 00:44 | 49.61484 | 9.41440 | 18679 ft | 400 kts | 144° |
| 2026-05-04 00:44 | 49.59213 | 9.43920 | 19145 ft | 400 kts | 149° |
| 2026-05-04 00:44 | 49.56823 | 9.46240 | 19640 ft | 402 kts | 152° |
| 2026-05-04 00:45 | 49.54436 | 9.48418 | 20125 ft | 405 kts | 153° |
| 2026-05-04 00:45 | 49.52000 | 9.50584 | 20633 ft | 408 kts | 153° |
| 2026-05-04 00:45 | 49.49491 | 9.52804 | 21115 ft | 411 kts | 153° |
| 2026-05-04 00:45 | 49.47007 | 9.55017 | 21614 ft | 414 kts | 153° |
| 2026-05-04 00:46 | 49.44548 | 9.57226 | 22101 ft | 417 kts | 153° |
| 2026-05-04 00:46 | 49.42036 | 9.59497 | 22568 ft | 420 kts | 153° |
| 2026-05-04 00:46 | 49.39529 | 9.61772 | 23069 ft | 422 kts | 153° |
| 2026-05-04 00:46 | 49.36994 | 9.64074 | 23553 ft | 425 kts | 153° |
| 2026-05-04 00:47 | 49.34490 | 9.66541 | 23931 ft | 430 kts | 147° |
| 2026-05-04 00:47 | 49.32187 | 9.69515 | 24363 ft | 435 kts | 141° |
| 2026-05-04 00:47 | 49.29990 | 9.72714 | 24790 ft | 437 kts | 139° |
| 2026-05-04 00:47 | 49.27828 | 9.76012 | 25195 ft | 440 kts | 138° |
| 2026-05-04 00:48 | 49.25672 | 9.79363 | 25618 ft | 442 kts | 138° |
| 2026-05-04 00:48 | 49.23511 | 9.82728 | 26013 ft | 444 kts | 138° |
| 2026-05-04 00:48 | 49.21331 | 9.86102 | 26410 ft | 447 kts | 138° |
| 2026-05-04 00:48 | 49.19135 | 9.89471 | 26798 ft | 449 kts | 138° |
| 2026-05-04 00:49 | 49.16914 | 9.92855 | 27172 ft | 451 kts | 139° |
| 2026-05-04 00:49 | 49.14683 | 9.96238 | 27526 ft | 454 kts | 139° |
| 2026-05-04 00:49 | 49.12439 | 9.99629 | 27902 ft | 456 kts | 139° |
| 2026-05-04 00:49 | 49.10170 | 10.03052 | 28251 ft | 459 kts | 139° |
| 2026-05-04 00:50 | 49.07892 | 10.06486 | 28615 ft | 461 kts | 139° |
| 2026-05-04 00:50 | 49.05601 | 10.09936 | 28955 ft | 464 kts | 139° |
| 2026-05-04 00:50 | 49.03275 | 10.13361 | 29309 ft | 466 kts | 140° |
| 2026-05-04 00:50 | 49.00900 | 10.16724 | 29653 ft | 467 kts | 141° |
| 2026-05-04 00:51 | 48.98499 | 10.20063 | 29986 ft | 470 kts | 141° |
| 2026-05-04 00:51 | 48.96073 | 10.23426 | 30270 ft | 472 kts | 141° |
| 2026-05-04 00:51 | 48.93657 | 10.26781 | 30534 ft | 474 kts | 141° |
| 2026-05-04 00:51 | 48.91217 | 10.30189 | 30812 ft | 476 kts | 141° |
| 2026-05-04 00:52 | 48.88776 | 10.33619 | 31077 ft | 478 kts | 141° |
| 2026-05-04 00:52 | 48.86334 | 10.37060 | 31324 ft | 480 kts | 141° |
| 2026-05-04 00:52 | 48.83891 | 10.40504 | 31573 ft | 482 kts | 141° |
| 2026-05-04 00:52 | 48.81431 | 10.43990 | 31799 ft | 484 kts | 140° |
| 2026-05-04 00:53 | 48.79048 | 10.47630 | 32023 ft | 487 kts | 137° |
| 2026-05-04 00:53 | 48.76739 | 10.51383 | 32224 ft | 489 kts | 136° |
| 2026-05-04 00:53 | 48.74444 | 10.55192 | 32458 ft | 491 kts | 136° |
| 2026-05-04 00:53 | 48.72165 | 10.58966 | 32699 ft | 491 kts | 136° |
| 2026-05-04 00:54 | 48.69849 | 10.62765 | 33011 ft | 490 kts | 136° |
| 2026-05-04 00:54 | 48.67523 | 10.66521 | 33312 ft | 489 kts | 136° |
| 2026-05-04 00:54 | 48.65187 | 10.70251 | 33614 ft | 488 kts | 137° |
| 2026-05-04 00:54 | 48.62847 | 10.73974 | 33911 ft | 487 kts | 137° |
| 2026-05-04 00:55 | 48.60511 | 10.77670 | 34165 ft | 486 kts | 137° |
| 2026-05-04 00:55 | 48.58169 | 10.81364 | 34398 ft | 486 kts | 137° |
| 2026-05-04 00:55 | 48.55843 | 10.85058 | 34626 ft | 486 kts | 136° |
| 2026-05-04 00:55 | 48.53514 | 10.88775 | 34826 ft | 486 kts | 136° |
| 2026-05-04 00:56 | 48.51198 | 10.92480 | 35015 ft | 486 kts | 136° |
| 2026-05-04 00:56 | 48.48877 | 10.96189 | 35219 ft | 486 kts | 136° |
| 2026-05-04 00:56 | 48.46556 | 10.99881 | 35420 ft | 486 kts | 136° |
| 2026-05-04 00:56 | 48.44204 | 11.03563 | 35616 ft | 485 kts | 137° |
| 2026-05-04 00:57 | 48.41852 | 11.07210 | 35801 ft | 485 kts | 137° |
| 2026-05-04 00:57 | 48.39497 | 11.10850 | 35972 ft | 485 kts | 137° |
| 2026-05-04 00:57 | 48.37144 | 11.14486 | 36138 ft | 485 kts | 137° |
| 2026-05-04 00:57 | 48.34792 | 11.18123 | 36322 ft | 485 kts | 137° |
| 2026-05-04 00:58 | 48.32441 | 11.21759 | 36482 ft | 485 kts | 137° |
| 2026-05-04 00:58 | 48.30092 | 11.25391 | 36644 ft | 485 kts | 137° |
| 2026-05-04 00:58 | 48.27767 | 11.29048 | 36789 ft | 486 kts | 135° |
| 2026-05-04 00:58 | 48.25672 | 11.33068 | 36903 ft | 489 kts | 126° |
| 2026-05-04 00:59 | 48.23870 | 11.37391 | 37045 ft | 490 kts | 123° |
| 2026-05-04 00:59 | 48.20421 | 11.46311 | 37065 ft | 496 kts | 122° |
| 2026-05-04 01:00 | 48.17002 | 11.55295 | 37066 ft | 497 kts | 122° |
| 2026-05-04 01:00 | 48.13555 | 11.64237 | 37055 ft | 495 kts | 122° |
| 2026-05-04 01:01 | 48.10078 | 11.73157 | 37055 ft | 495 kts | 122° |
| 2026-05-04 01:01 | 48.06604 | 11.82025 | 37053 ft | 495 kts | 122° |
| 2026-05-04 01:02 | 48.03139 | 11.90843 | 37054 ft | 495 kts | 122° |
| 2026-05-04 01:02 | 47.99652 | 11.99695 | 37049 ft | 495 kts | 122° |
| 2026-05-04 01:03 | 47.96149 | 12.08557 | 37061 ft | 495 kts | 122° |
| 2026-05-04 01:03 | 47.92153 | 12.16832 | 37058 ft | 491 kts | 136° |
| 2026-05-04 01:04 | 47.87094 | 12.23584 | 37035 ft | 488 kts | 142° |
| 2026-05-04 01:04 | 47.81864 | 12.30037 | 37055 ft | 488 kts | 142° |
| 2026-05-04 01:05 | 47.76633 | 12.36476 | 37034 ft | 488 kts | 142° |
| 2026-05-04 01:05 | 47.71415 | 12.42945 | 37053 ft | 488 kts | 142° |
| 2026-05-04 01:06 | 47.66211 | 12.49409 | 37045 ft | 488 kts | 142° |
| 2026-05-04 01:06 | 47.61135 | 12.56119 | 37054 ft | 490 kts | 137° |
| 2026-05-04 01:07 | 47.56343 | 12.63313 | 37050 ft | 490 kts | 136° |
| 2026-05-04 01:07 | 47.51638 | 12.70470 | 37053 ft | 490 kts | 136° |
| 2026-05-04 01:08 | 47.46874 | 12.77683 | 37059 ft | 490 kts | 136° |
| 2026-05-04 01:08 | 47.42097 | 12.84873 | 37056 ft | 491 kts | 136° |
| 2026-05-04 01:09 | 47.37308 | 12.92050 | 37064 ft | 491 kts | 136° |
| 2026-05-04 01:09 | 47.32569 | 12.99132 | 37062 ft | 491 kts | 136° |
| 2026-05-04 01:10 | 47.28575 | 13.05090 | 37070 ft | 491 kts | 136° |
| 2026-05-04 01:10 | 47.22979 | 13.13414 | 37082 ft | 491 kts | 136° |
| 2026-05-04 01:11 | 47.18234 | 13.20451 | 37091 ft | 491 kts | 136° |
| 2026-05-04 01:11 | 47.14230 | 13.26372 | 37095 ft | 491 kts | 136° |
| 2026-05-04 01:12 | 47.09418 | 13.33474 | 37096 ft | 491 kts | 136° |
| 2026-05-04 01:12 | 47.04601 | 13.40569 | 37100 ft | 490 kts | 136° |
| 2026-05-04 01:13 | 46.99806 | 13.47608 | 37102 ft | 490 kts | 136° |
| 2026-05-04 01:13 | 46.94983 | 13.54666 | 37104 ft | 491 kts | 136° |
| 2026-05-04 01:14 | 46.90162 | 13.61705 | 37107 ft | 491 kts | 136° |
| 2026-05-04 01:14 | 46.85321 | 13.68755 | 37110 ft | 491 kts | 136° |
| 2026-05-04 01:15 | 46.80482 | 13.75779 | 37110 ft | 491 kts | 136° |
| 2026-05-04 01:15 | 46.75667 | 13.82753 | 37113 ft | 491 kts | 136° |
| 2026-05-04 01:16 | 46.70813 | 13.89763 | 37110 ft | 491 kts | 136° |
| 2026-05-04 01:16 | 46.67087 | 13.95131 | 37112 ft | 492 kts | 136° |
| 2026-05-04 01:17 | 46.62212 | 14.02103 | 37109 ft | 492 kts | 136° |
| 2026-05-04 01:17 | 46.57402 | 14.08956 | 37108 ft | 492 kts | 136° |
| 2026-05-04 01:18 | 46.52556 | 14.15849 | 37107 ft | 492 kts | 136° |
| 2026-05-04 01:18 | 46.47717 | 14.22719 | 37110 ft | 492 kts | 136° |
| 2026-05-04 01:19 | 46.42825 | 14.29645 | 37115 ft | 493 kts | 136° |
| 2026-05-04 01:19 | 46.37906 | 14.36591 | 37128 ft | 493 kts | 136° |
| 2026-05-04 01:20 | 46.32989 | 14.43514 | 37131 ft | 494 kts | 136° |
| 2026-05-04 01:20 | 46.28052 | 14.50448 | 37128 ft | 494 kts | 136° |
| 2026-05-04 01:21 | 46.23124 | 14.57352 | 37128 ft | 494 kts | 136° |
| 2026-05-04 01:21 | 46.18180 | 14.64258 | 37128 ft | 495 kts | 136° |
| 2026-05-04 01:22 | 46.13227 | 14.71160 | 37128 ft | 495 kts | 136° |
| 2026-05-04 01:22 | 46.08264 | 14.78057 | 37124 ft | 496 kts | 136° |
| 2026-05-04 01:23 | 46.03254 | 14.84871 | 37123 ft | 496 kts | 137° |
| 2026-05-04 01:23 | 45.98181 | 14.91587 | 37121 ft | 496 kts | 138° |
| 2026-05-04 01:24 | 45.93101 | 14.98310 | 37119 ft | 496 kts | 137° |
| 2026-05-04 01:24 | 45.88045 | 15.05018 | 37112 ft | 496 kts | 137° |
| 2026-05-04 01:25 | 45.83030 | 15.11667 | 37104 ft | 497 kts | 137° |
| 2026-05-04 01:25 | 45.77954 | 15.18382 | 37109 ft | 497 kts | 137° |
| 2026-05-04 01:26 | 45.72865 | 15.25092 | 37109 ft | 498 kts | 137° |
| 2026-05-04 01:26 | 45.67763 | 15.31803 | 37109 ft | 498 kts | 137° |
| 2026-05-04 01:27 | 45.62719 | 15.38419 | 37107 ft | 498 kts | 137° |
| 2026-05-04 01:27 | 45.57610 | 15.45104 | 37104 ft | 499 kts | 137° |
| 2026-05-04 01:28 | 45.52485 | 15.51793 | 37105 ft | 499 kts | 137° |
| 2026-05-04 01:28 | 45.47357 | 15.58468 | 37105 ft | 500 kts | 137° |
| 2026-05-04 01:29 | 45.42253 | 15.65095 | 37107 ft | 500 kts | 137° |
| 2026-05-04 01:29 | 45.37067 | 15.71811 | 37106 ft | 501 kts | 137° |
| 2026-05-04 01:30 | 45.31911 | 15.78470 | 37106 ft | 501 kts | 137° |
| 2026-05-04 01:30 | 45.26746 | 15.85126 | 37108 ft | 502 kts | 137° |
| 2026-05-04 01:31 | 45.21576 | 15.91769 | 37112 ft | 502 kts | 137° |
| 2026-05-04 01:31 | 45.16245 | 15.98089 | 37111 ft | 503 kts | 141° |
| 2026-05-04 01:32 | 45.10731 | 16.04190 | 37115 ft | 503 kts | 141° |
| 2026-05-04 01:32 | 45.05227 | 16.10332 | 37114 ft | 504 kts | 141° |
| 2026-05-04 01:33 | 44.99754 | 16.16523 | 37116 ft | 505 kts | 140° |
| 2026-05-04 01:33 | 44.94278 | 16.22736 | 37120 ft | 505 kts | 140° |
| 2026-05-04 01:34 | 44.88785 | 16.28953 | 37126 ft | 506 kts | 140° |
| 2026-05-04 01:34 | 44.83281 | 16.35160 | 37129 ft | 507 kts | 140° |
| 2026-05-04 01:35 | 44.77779 | 16.41347 | 37137 ft | 507 kts | 140° |
| 2026-05-04 01:35 | 44.72259 | 16.47539 | 37142 ft | 507 kts | 140° |
| 2026-05-04 01:36 | 44.66742 | 16.53711 | 37143 ft | 507 kts | 140° |
| 2026-05-04 01:36 | 44.61209 | 16.59887 | 37151 ft | 508 kts | 140° |
| 2026-05-04 01:37 | 44.55671 | 16.66053 | 37155 ft | 508 kts | 140° |
| 2026-05-04 01:37 | 44.50129 | 16.72207 | 37161 ft | 508 kts | 140° |
| 2026-05-04 01:38 | 44.44584 | 16.78348 | 37165 ft | 508 kts | 140° |
| 2026-05-04 01:38 | 44.39033 | 16.84482 | 37172 ft | 509 kts | 140° |
| 2026-05-04 01:39 | 44.33467 | 16.90617 | 37177 ft | 509 kts | 140° |
| 2026-05-04 01:39 | 44.27941 | 16.96693 | 37178 ft | 509 kts | 140° |
| 2026-05-04 01:40 | 44.22376 | 17.02797 | 37178 ft | 509 kts | 140° |
| 2026-05-04 01:40 | 44.16804 | 17.08893 | 37183 ft | 510 kts | 140° |
| 2026-05-04 01:41 | 44.11225 | 17.14983 | 37187 ft | 510 kts | 141° |
| 2026-05-04 01:41 | 44.05633 | 17.21069 | 37184 ft | 510 kts | 141° |
| 2026-05-04 01:42 | 44.00039 | 17.27144 | 37182 ft | 510 kts | 141° |
| 2026-05-04 01:42 | 43.94440 | 17.33212 | 37181 ft | 511 kts | 141° |
| 2026-05-04 01:43 | 43.88833 | 17.39270 | 37176 ft | 511 kts | 141° |
| 2026-05-04 01:43 | 43.83215 | 17.45326 | 37158 ft | 512 kts | 141° |
| 2026-05-04 01:44 | 43.77587 | 17.51379 | 37176 ft | 512 kts | 141° |
| 2026-05-04 01:44 | 43.71734 | 17.57035 | 37174 ft | 514 kts | 146° |
| 2026-05-04 01:45 | 43.65764 | 17.62350 | 37152 ft | 515 kts | 146° |
| 2026-05-04 01:45 | 43.56748 | 17.70287 | 37144 ft | 515 kts | 146° |
| 2026-05-04 01:46 | 43.50668 | 17.75645 | 37140 ft | 516 kts | 146° |
| 2026-05-04 01:46 | 43.44655 | 17.80941 | 37133 ft | 516 kts | 146° |
| 2026-05-04 01:47 | 43.38629 | 17.86236 | 37130 ft | 517 kts | 146° |
| 2026-05-04 01:47 | 43.32705 | 17.91428 | 37131 ft | 517 kts | 146° |
| 2026-05-04 01:48 | 43.26623 | 17.96745 | 37131 ft | 518 kts | 146° |
| 2026-05-04 01:48 | 43.20543 | 18.02047 | 37140 ft | 519 kts | 146° |
| 2026-05-04 01:49 | 43.14494 | 18.07310 | 37151 ft | 519 kts | 146° |
| 2026-05-04 01:49 | 43.08385 | 18.12613 | 37162 ft | 520 kts | 146° |
| 2026-05-04 01:50 | 43.02266 | 18.17912 | 37178 ft | 521 kts | 146° |
| 2026-05-04 01:50 | 42.96575 | 18.22829 | 37179 ft | 522 kts | 146° |
| 2026-05-04 01:51 | 42.90441 | 18.28116 | 37179 ft | 523 kts | 146° |
| 2026-05-04 01:51 | 42.89401 | 18.29011 | 37173 ft | 523 kts | 146° |
| 2026-05-04 01:52 | 42.83814 | 18.33815 | 37165 ft | 524 kts | 146° |
| 2026-05-04 01:52 | 42.78514 | 18.38362 | 37160 ft | 524 kts | 146° |
| 2026-05-04 01:53 | 42.72334 | 18.43653 | 37148 ft | 525 kts | 146° |
| 2026-05-04 01:53 | 42.66144 | 18.48938 | 37146 ft | 526 kts | 146° |
| 2026-05-04 01:54 | 42.59934 | 18.54227 | 37147 ft | 527 kts | 146° |
| 2026-05-04 01:54 | 42.53905 | 18.59350 | 37140 ft | 528 kts | 146° |
| 2026-05-04 01:55 | 42.47683 | 18.64626 | 37137 ft | 528 kts | 146° |
| 2026-05-04 01:55 | 42.41452 | 18.69897 | 37130 ft | 529 kts | 146° |
| 2026-05-04 01:56 | 42.35373 | 18.75028 | 37131 ft | 529 kts | 146° |
| 2026-05-04 01:56 | 42.29118 | 18.80296 | 37131 ft | 530 kts | 146° |
| 2026-05-04 01:57 | 42.22851 | 18.85559 | 37136 ft | 531 kts | 146° |
| 2026-05-04 01:57 | 42.16576 | 18.90816 | 37139 ft | 531 kts | 146° |
| 2026-05-04 01:58 | 42.10634 | 18.95784 | 37140 ft | 532 kts | 146° |
| 2026-05-04 01:58 | 42.05401 | 19.00149 | 37141 ft | 532 kts | 146° |
| 2026-05-04 01:59 | 41.99097 | 19.05397 | 37140 ft | 533 kts | 146° |
| 2026-05-04 01:59 | 41.92971 | 19.10484 | 37137 ft | 533 kts | 146° |
| 2026-05-04 02:00 | 41.85732 | 19.16482 | 37136 ft | 534 kts | 146° |
| 2026-05-04 02:00 | 41.80544 | 19.20770 | 37131 ft | 535 kts | 147° |
| 2026-05-04 02:01 | 41.74254 | 19.25957 | 37131 ft | 535 kts | 147° |
| 2026-05-04 02:01 | 41.67943 | 19.31150 | 37124 ft | 535 kts | 147° |
| 2026-05-04 02:02 | 41.61602 | 19.36356 | 37139 ft | 535 kts | 147° |
| 2026-05-04 02:02 | 41.55384 | 19.41448 | 37119 ft | 536 kts | 147° |
| 2026-05-04 02:03 | 41.49034 | 19.46638 | 37121 ft | 536 kts | 147° |
| 2026-05-04 02:03 | 41.42662 | 19.51833 | 37139 ft | 537 kts | 147° |
| 2026-05-04 02:04 | 41.36292 | 19.57013 | 37129 ft | 536 kts | 147° |
| 2026-05-04 02:04 | 41.29962 | 19.62150 | 37129 ft | 537 kts | 147° |
| 2026-05-04 02:05 | 41.23590 | 19.67308 | 37138 ft | 536 kts | 147° |
| 2026-05-04 02:05 | 41.17205 | 19.72465 | 37128 ft | 537 kts | 147° |
| 2026-05-04 02:06 | 41.10825 | 19.77608 | 37129 ft | 537 kts | 147° |
| 2026-05-04 02:06 | 41.04446 | 19.82737 | 37129 ft | 537 kts | 147° |
| 2026-05-04 02:07 | 40.98056 | 19.87863 | 37134 ft | 537 kts | 147° |
| 2026-05-04 02:07 | 40.91661 | 19.92980 | 37132 ft | 537 kts | 147° |
| 2026-05-04 02:08 | 40.85258 | 19.98093 | 37136 ft | 538 kts | 147° |
| 2026-05-04 02:08 | 40.78856 | 20.03193 | 37141 ft | 538 kts | 147° |
| 2026-05-04 02:09 | 40.72437 | 20.08295 | 37145 ft | 538 kts | 147° |
| 2026-05-04 02:09 | 40.66030 | 20.13376 | 37146 ft | 538 kts | 148° |
| 2026-05-04 02:10 | 40.59657 | 20.18419 | 37148 ft | 538 kts | 148° |
| 2026-05-04 02:10 | 40.53243 | 20.23483 | 37154 ft | 538 kts | 148° |
| 2026-05-04 02:11 | 40.46777 | 20.28577 | 37157 ft | 539 kts | 148° |
| 2026-05-04 02:11 | 40.40384 | 20.33600 | 37168 ft | 539 kts | 148° |
| 2026-05-04 02:12 | 40.33909 | 20.38677 | 37175 ft | 539 kts | 148° |
| 2026-05-04 02:12 | 40.27454 | 20.43728 | 37167 ft | 540 kts | 148° |
| 2026-05-04 02:13 | 40.21046 | 20.48732 | 37158 ft | 540 kts | 148° |
| 2026-05-04 02:13 | 40.14584 | 20.53765 | 37164 ft | 541 kts | 148° |
| 2026-05-04 02:14 | 40.08131 | 20.58779 | 37160 ft | 541 kts | 148° |
| 2026-05-04 02:14 | 40.01592 | 20.63651 | 37162 ft | 541 kts | 151° |
| 2026-05-04 02:15 | 39.94964 | 20.68144 | 37168 ft | 541 kts | 152° |
| 2026-05-04 02:15 | 39.88273 | 20.72662 | 37174 ft | 541 kts | 152° |
| 2026-05-04 02:16 | 39.81610 | 20.77234 | 37181 ft | 542 kts | 152° |
| 2026-05-04 02:16 | 39.74949 | 20.81833 | 37183 ft | 542 kts | 152° |
| 2026-05-04 02:17 | 39.68284 | 20.86427 | 37186 ft | 543 kts | 152° |
| 2026-05-04 02:17 | 39.61606 | 20.91016 | 37184 ft | 543 kts | 152° |
| 2026-05-04 02:18 | 39.54920 | 20.95597 | 37179 ft | 544 kts | 152° |
| 2026-05-04 02:18 | 39.48231 | 21.00171 | 37180 ft | 544 kts | 152° |
| 2026-05-04 02:19 | 39.41523 | 21.04749 | 37173 ft | 545 kts | 152° |
| 2026-05-04 02:19 | 39.34812 | 21.09316 | 37184 ft | 546 kts | 152° |
| 2026-05-04 02:20 | 39.28087 | 21.13885 | 37190 ft | 546 kts | 152° |
| 2026-05-04 02:20 | 39.21358 | 21.18447 | 37195 ft | 547 kts | 152° |
| 2026-05-04 02:21 | 39.14620 | 21.23003 | 37203 ft | 547 kts | 152° |
| 2026-05-04 02:21 | 39.07874 | 21.27556 | 37202 ft | 547 kts | 152° |
| 2026-05-04 02:22 | 39.01135 | 21.32094 | 37205 ft | 547 kts | 152° |
| 2026-05-04 02:22 | 38.94386 | 21.36630 | 37203 ft | 547 kts | 152° |
| 2026-05-04 02:23 | 38.87664 | 21.41136 | 37199 ft | 548 kts | 153° |
| 2026-05-04 02:23 | 38.80901 | 21.45661 | 37200 ft | 548 kts | 153° |
| 2026-05-04 02:24 | 38.74132 | 21.50180 | 37202 ft | 549 kts | 153° |
| 2026-05-04 02:24 | 38.67359 | 21.54692 | 37201 ft | 549 kts | 153° |
| 2026-05-04 02:25 | 38.60579 | 21.59198 | 37199 ft | 550 kts | 153° |
| 2026-05-04 02:25 | 38.53871 | 21.63648 | 37200 ft | 550 kts | 153° |
| 2026-05-04 02:26 | 38.47074 | 21.68148 | 37188 ft | 550 kts | 153° |
| 2026-05-04 02:26 | 38.40275 | 21.72639 | 37194 ft | 550 kts | 153° |
| 2026-05-04 02:27 | 38.33466 | 21.77128 | 37189 ft | 551 kts | 153° |
| 2026-05-04 02:27 | 38.26701 | 21.81577 | 37191 ft | 551 kts | 153° |
| 2026-05-04 02:28 | 38.19890 | 21.86047 | 37192 ft | 551 kts | 153° |
| 2026-05-04 02:28 | 38.13078 | 21.90508 | 37197 ft | 551 kts | 153° |
| 2026-05-04 02:29 | 38.06257 | 21.94967 | 37202 ft | 551 kts | 153° |
| 2026-05-04 02:29 | 37.99448 | 21.99408 | 37211 ft | 551 kts | 153° |
| 2026-05-04 02:30 | 37.92630 | 22.03846 | 37213 ft | 551 kts | 153° |
| 2026-05-04 02:30 | 37.85800 | 22.08280 | 37214 ft | 551 kts | 154° |
| 2026-05-04 02:31 | 37.79124 | 22.12606 | 37222 ft | 552 kts | 154° |
| 2026-05-04 02:31 | 37.72275 | 22.17036 | 37224 ft | 552 kts | 154° |
| 2026-05-04 02:32 | 37.65429 | 22.21454 | 37225 ft | 553 kts | 154° |
| 2026-05-04 02:32 | 37.58581 | 22.25865 | 37224 ft | 553 kts | 154° |
| 2026-05-04 02:33 | 37.51723 | 22.30273 | 37222 ft | 553 kts | 154° |
| 2026-05-04 02:33 | 37.44864 | 22.34673 | 37220 ft | 553 kts | 154° |
| 2026-05-04 02:34 | 37.38003 | 22.39065 | 37208 ft | 553 kts | 154° |
| 2026-05-04 02:34 | 37.31188 | 22.43418 | 37209 ft | 553 kts | 154° |
| 2026-05-04 02:35 | 37.24342 | 22.47781 | 37206 ft | 553 kts | 154° |
| 2026-05-04 02:35 | 37.17478 | 22.52148 | 37201 ft | 552 kts | 155° |
| 2026-05-04 02:36 | 37.10630 | 22.56496 | 37197 ft | 552 kts | 155° |
| 2026-05-04 02:36 | 37.03781 | 22.60834 | 37190 ft | 552 kts | 155° |
| 2026-05-04 02:37 | 36.96921 | 22.65170 | 37191 ft | 552 kts | 155° |
| 2026-05-04 02:37 | 36.90068 | 22.69495 | 37185 ft | 552 kts | 155° |
| 2026-05-04 02:38 | 36.83215 | 22.73810 | 37182 ft | 552 kts | 155° |
| 2026-05-04 02:38 | 36.76399 | 22.78093 | 37182 ft | 552 kts | 155° |
| 2026-05-04 02:39 | 36.69534 | 22.82399 | 37173 ft | 552 kts | 156° |
| 2026-05-04 02:39 | 36.62779 | 22.86627 | 37172 ft | 552 kts | 156° |
| 2026-05-04 02:40 | 36.55906 | 22.90919 | 37164 ft | 553 kts | 156° |
| 2026-05-04 02:40 | 36.49031 | 22.95205 | 37169 ft | 553 kts | 156° |
| 2026-05-04 02:41 | 36.42140 | 22.99492 | 37164 ft | 554 kts | 156° |
| 2026-05-04 02:41 | 36.35260 | 23.03764 | 37164 ft | 554 kts | 156° |
| 2026-05-04 02:42 | 36.28359 | 23.08040 | 37163 ft | 555 kts | 156° |
| 2026-05-04 02:42 | 36.21444 | 23.12316 | 37162 ft | 555 kts | 156° |
| 2026-05-04 02:43 | 36.14537 | 23.16579 | 37163 ft | 556 kts | 156° |
| 2026-05-04 02:43 | 36.07601 | 23.20852 | 37161 ft | 556 kts | 156° |
| 2026-05-04 02:44 | 36.00673 | 23.25111 | 37159 ft | 557 kts | 156° |
| 2026-05-04 02:44 | 35.93737 | 23.29367 | 37158 ft | 557 kts | 156° |
| 2026-05-04 02:45 | 35.86789 | 23.33621 | 37158 ft | 557 kts | 156° |
| 2026-05-04 02:45 | 35.79836 | 23.37871 | 37157 ft | 558 kts | 157° |
| 2026-05-04 02:46 | 35.74063 | 23.41393 | 37157 ft | 558 kts | 157° |
| 2026-05-04 02:46 | 35.67104 | 23.45631 | 37156 ft | 558 kts | 157° |
| 2026-05-04 02:47 | 35.60146 | 23.49861 | 37158 ft | 557 kts | 157° |
| 2026-05-04 02:47 | 35.53204 | 23.54072 | 37154 ft | 557 kts | 157° |
| 2026-05-04 02:48 | 35.46254 | 23.58279 | 37146 ft | 557 kts | 157° |
| 2026-05-04 02:48 | 35.39447 | 23.62394 | 37151 ft | 556 kts | 157° |
| 2026-05-04 02:49 | 35.32516 | 23.66574 | 37147 ft | 555 kts | 157° |
| 2026-05-04 02:49 | 35.25623 | 23.70718 | 37142 ft | 556 kts | 157° |
| 2026-05-04 02:50 | 35.18679 | 23.74892 | 37140 ft | 556 kts | 158° |
| 2026-05-04 02:50 | 35.11729 | 23.79062 | 37136 ft | 556 kts | 158° |
| 2026-05-04 02:51 | 35.04783 | 23.83220 | 37131 ft | 556 kts | 158° |
| 2026-05-04 02:51 | 34.97836 | 23.87370 | 37127 ft | 556 kts | 158° |
| 2026-05-04 02:52 | 34.90885 | 23.91514 | 37132 ft | 556 kts | 158° |
| 2026-05-04 02:52 | 34.83924 | 23.95656 | 37112 ft | 556 kts | 158° |
| 2026-05-04 02:53 | 34.76972 | 23.99786 | 37123 ft | 556 kts | 158° |
| 2026-05-04 02:53 | 34.70018 | 24.03908 | 37122 ft | 556 kts | 159° |
| 2026-05-04 02:54 | 34.63064 | 24.08024 | 37121 ft | 556 kts | 159° |
| 2026-05-04 02:54 | 34.56110 | 24.12131 | 37118 ft | 555 kts | 159° |
| 2026-05-04 02:55 | 34.45698 | 24.18266 | 37120 ft | 555 kts | 159° |
| 2026-05-04 02:56 | 34.38734 | 24.22359 | 37122 ft | 555 kts | 159° |
| 2026-05-04 02:56 | 34.31785 | 24.26437 | 37124 ft | 556 kts | 159° |
| 2026-05-04 02:57 | 34.24820 | 24.30517 | 37123 ft | 556 kts | 159° |
| 2026-05-04 02:57 | 34.17862 | 24.34584 | 37122 ft | 556 kts | 159° |
| 2026-05-04 02:58 | 34.10886 | 24.38654 | 37121 ft | 557 kts | 159° |
| 2026-05-04 02:58 | 34.03902 | 24.42723 | 37122 ft | 557 kts | 159° |
| 2026-05-04 02:59 | 33.97374 | 24.47772 | 37133 ft | 568 kts | 143° |
| 2026-05-04 02:59 | 33.91414 | 24.54033 | 37123 ft | 569 kts | 141° |
| 2026-05-04 03:00 | 33.85560 | 24.60444 | 37121 ft | 569 kts | 140° |
| 2026-05-04 03:00 | 33.79680 | 24.66834 | 37119 ft | 569 kts | 141° |
| 2026-05-04 03:01 | 33.73778 | 24.73169 | 37118 ft | 569 kts | 141° |
| 2026-05-04 03:01 | 33.67861 | 24.79485 | 37118 ft | 569 kts | 141° |
| 2026-05-04 03:02 | 33.61949 | 24.85783 | 37118 ft | 569 kts | 141° |
| 2026-05-04 03:02 | 33.56022 | 24.92090 | 37115 ft | 569 kts | 141° |
| 2026-05-04 03:03 | 33.50099 | 24.98383 | 37095 ft | 569 kts | 142° |
| 2026-05-04 03:03 | 33.44175 | 25.04665 | 37109 ft | 569 kts | 142° |
| 2026-05-04 03:04 | 33.38237 | 25.10949 | 37105 ft | 569 kts | 142° |
| 2026-05-04 03:04 | 33.32313 | 25.17207 | 37123 ft | 569 kts | 142° |
| 2026-05-04 03:05 | 33.26380 | 25.23462 | 37118 ft | 568 kts | 142° |
| 2026-05-04 03:05 | 33.20443 | 25.29710 | 37111 ft | 568 kts | 142° |
| 2026-05-04 03:06 | 33.14517 | 25.35934 | 37107 ft | 568 kts | 142° |
| 2026-05-04 03:06 | 33.08584 | 25.42155 | 37103 ft | 568 kts | 142° |
| 2026-05-04 03:07 | 33.02651 | 25.48363 | 37105 ft | 567 kts | 142° |
| 2026-05-04 03:07 | 32.96724 | 25.54555 | 37106 ft | 567 kts | 142° |
| 2026-05-04 03:08 | 32.90798 | 25.60732 | 37102 ft | 566 kts | 143° |
| 2026-05-04 03:08 | 32.84908 | 25.66862 | 37102 ft | 566 kts | 143° |
| 2026-05-04 03:09 | 32.78986 | 25.73013 | 37102 ft | 565 kts | 143° |
| 2026-05-04 03:09 | 32.73067 | 25.79149 | 37102 ft | 565 kts | 143° |
| 2026-05-04 03:10 | 32.67151 | 25.85272 | 37102 ft | 564 kts | 143° |
| 2026-05-04 03:10 | 32.61236 | 25.91383 | 37103 ft | 564 kts | 143° |
| 2026-05-04 03:11 | 32.55322 | 25.97480 | 37100 ft | 563 kts | 143° |
| 2026-05-04 03:11 | 32.49403 | 26.03572 | 37103 ft | 563 kts | 144° |
| 2026-05-04 03:12 | 32.43495 | 26.09643 | 37100 ft | 562 kts | 144° |
| 2026-05-04 03:12 | 32.37588 | 26.15700 | 37098 ft | 562 kts | 144° |
| 2026-05-04 03:13 | 32.31690 | 26.21739 | 37099 ft | 561 kts | 144° |
| 2026-05-04 03:13 | 32.25789 | 26.27769 | 37100 ft | 560 kts | 144° |
| 2026-05-04 03:14 | 32.19890 | 26.33787 | 37102 ft | 560 kts | 144° |
| 2026-05-04 03:14 | 32.13995 | 26.39788 | 37100 ft | 560 kts | 144° |
| 2026-05-04 03:15 | 32.08098 | 26.45782 | 37095 ft | 559 kts | 145° |
| 2026-05-04 03:15 | 32.02198 | 26.51767 | 37110 ft | 559 kts | 145° |
| 2026-05-04 03:16 | 31.96304 | 26.57738 | 37097 ft | 559 kts | 145° |
| 2026-05-04 03:16 | 31.90400 | 26.63707 | 37106 ft | 559 kts | 145° |
| 2026-05-04 03:17 | 31.84497 | 26.69665 | 37107 ft | 559 kts | 145° |
| 2026-05-04 03:17 | 31.78581 | 26.75626 | 37109 ft | 559 kts | 145° |
| 2026-05-04 03:18 | 31.72669 | 26.81572 | 37108 ft | 559 kts | 145° |
| 2026-05-04 03:18 | 31.66756 | 26.87508 | 37114 ft | 559 kts | 145° |
| 2026-05-04 03:19 | 31.60837 | 26.93440 | 37116 ft | 559 kts | 145° |
| 2026-05-04 03:19 | 31.54920 | 26.99361 | 37118 ft | 559 kts | 146° |
| 2026-05-04 03:20 | 31.48993 | 27.05281 | 37122 ft | 559 kts | 146° |
| 2026-05-04 03:20 | 31.43066 | 27.11191 | 37123 ft | 559 kts | 146° |
| 2026-05-04 03:21 | 31.37139 | 27.17092 | 37128 ft | 559 kts | 146° |
| 2026-05-04 03:21 | 31.31018 | 27.22588 | 37130 ft | 547 kts | 158° |
| 2026-05-04 03:22 | 31.24277 | 27.26553 | 37133 ft | 540 kts | 163° |
| 2026-05-04 03:22 | 31.17459 | 27.30200 | 37130 ft | 539 kts | 164° |
| 2026-05-04 03:23 | 31.10633 | 27.33829 | 37132 ft | 539 kts | 163° |
| 2026-05-04 03:23 | 31.03830 | 27.37486 | 37138 ft | 539 kts | 163° |
| 2026-05-04 03:24 | 30.97065 | 27.41141 | 37140 ft | 539 kts | 163° |
| 2026-05-04 03:24 | 30.90563 | 27.45674 | 37147 ft | 554 kts | 150° |
| 2026-05-04 03:25 | 30.84483 | 27.51212 | 37145 ft | 556 kts | 148° |
| 2026-05-04 03:25 | 30.78478 | 27.56875 | 37139 ft | 555 kts | 148° |
| 2026-05-04 03:26 | 30.72466 | 27.62499 | 37140 ft | 554 kts | 148° |
| 2026-05-04 03:26 | 30.66442 | 27.68076 | 37139 ft | 553 kts | 148° |
| 2026-05-04 03:27 | 30.60421 | 27.73623 | 37136 ft | 553 kts | 148° |
| 2026-05-04 03:27 | 30.54395 | 27.79166 | 37133 ft | 552 kts | 148° |
| 2026-05-04 03:28 | 30.48383 | 27.84690 | 37142 ft | 551 kts | 148° |
| 2026-05-04 03:28 | 30.42381 | 27.90198 | 37139 ft | 550 kts | 149° |
| 2026-05-04 03:29 | 30.36387 | 27.95690 | 37125 ft | 548 kts | 149° |
| 2026-05-04 03:29 | 30.30402 | 28.01164 | 37128 ft | 547 kts | 149° |
| 2026-05-04 03:30 | 30.24435 | 28.06612 | 37130 ft | 546 kts | 149° |
| 2026-05-04 03:30 | 30.18475 | 28.12046 | 37119 ft | 545 kts | 149° |
| 2026-05-04 03:31 | 30.12532 | 28.17456 | 37126 ft | 543 kts | 149° |
| 2026-05-04 03:31 | 30.06597 | 28.22848 | 37126 ft | 542 kts | 149° |
| 2026-05-04 03:32 | 30.00670 | 28.28225 | 37126 ft | 542 kts | 149° |
| 2026-05-04 03:32 | 29.95751 | 28.32682 | 37128 ft | 541 kts | 149° |
| 2026-05-04 03:33 | 29.88872 | 28.38914 | 37128 ft | 541 kts | 149° |
| 2026-05-04 03:33 | 29.84383 | 28.44142 | 37135 ft | 554 kts | 135° |
| 2026-05-04 03:34 | 29.79606 | 28.51135 | 37123 ft | 556 kts | 133° |
| 2026-05-04 03:34 | 29.74945 | 28.58226 | 37123 ft | 556 kts | 133° |
| 2026-05-04 03:35 | 29.70265 | 28.65286 | 37122 ft | 555 kts | 133° |
| 2026-05-04 03:35 | 29.65551 | 28.72316 | 37136 ft | 555 kts | 134° |
| 2026-05-04 03:36 | 29.60827 | 28.79336 | 37118 ft | 555 kts | 134° |
| 2026-05-04 03:36 | 29.56130 | 28.86296 | 37132 ft | 555 kts | 134° |
| 2026-05-04 03:37 | 29.51369 | 28.93341 | 37132 ft | 554 kts | 134° |
| 2026-05-04 03:37 | 29.46671 | 29.00284 | 37137 ft | 554 kts | 134° |
| 2026-05-04 03:38 | 29.41811 | 29.07112 | 37135 ft | 547 kts | 142° |
| 2026-05-04 03:38 | 29.36057 | 29.12641 | 37143 ft | 537 kts | 150° |
| 2026-05-04 03:39 | 29.30104 | 29.17783 | 37143 ft | 535 kts | 152° |
| 2026-05-04 03:39 | 29.24136 | 29.22879 | 37150 ft | 535 kts | 152° |
| 2026-05-04 03:40 | 29.18192 | 29.27995 | 37148 ft | 535 kts | 151° |
| 2026-05-04 03:40 | 29.12254 | 29.33129 | 37150 ft | 535 kts | 151° |
| 2026-05-04 03:41 | 29.06288 | 29.38190 | 37151 ft | 533 kts | 153° |